Time;durP1;ratioP1;P1;durP2;ratioP2;P2;SDS_P1;SDS_P2;PMS_P1;PMS_P2;Temp;Humidity;BMP_temperature;BMP_pressure;BME280_temperature;BME280_humidity;BME280_pressure;Samples;Min_cycle;Max_cycle;Signal;HPM_P1;HPM_P2
2023/10/22 00:01:40;;;;;;;;;;;;;;;24.47;41.29;93407.50;4927168;29;7338;-56
2023/10/22 00:04:21;;;;;;;;;;;;;;;24.52;41.33;93404.66;4902101;29;7265;-56
2023/10/22 00:06:54;;;;;;;;;;;;;;;24.58;40.75;93407.31;4934417;28;7013;-56
2023/10/22 00:09:30;;;;;;;;;;;;;;;24.60;40.88;93410.28;4953310;28;8783;-56
2023/10/22 00:11:57;;;;;;;;;;;;;;;24.63;40.92;93404.47;4952820;28;7200;-56
2023/10/22 00:14:25;;;;;;;;;;;;;;;24.66;40.59;93422.66;4985541;28;7146;-56
2023/10/22 00:17:00;;;;;;;;;;;;;;;24.69;40.60;93421.59;5005809;28;9095;-56
2023/10/22 00:19:26;;;;;;;;;;;;;;;24.73;40.53;93420.56;4965283;28;7231;-56
2023/10/22 00:21:56;;;;;;;;;;;;;;;24.73;40.44;93424.03;4990923;28;9070;-56
2023/10/22 00:24:27;;;;;;;;;;;;;;;24.75;41.05;93423.53;4991734;28;7053;-56
2023/10/22 00:27:23;;;;;;;;;;;;;;;24.77;40.39;93432.75;4974845;28;7234;-56
2023/10/22 00:30:10;;;;;;;;;;;;;;;24.79;40.42;93434.97;4949503;28;7074;-56
2023/10/22 00:32:38;;;;;;;;;;;;;;;24.78;40.80;93438.97;4954589;28;9465;-56
2023/10/22 00:35:16;;;;;;;;;;;;;;;24.80;41.21;93437.19;4956983;28;8732;-56
2023/10/22 00:37:45;;;;;;;;;;;;;;;24.81;40.90;93437.94;4971357;28;7177;-56
2023/10/22 00:40:36;;;;;;;;;;;;;;;24.80;40.48;93445.44;4971922;28;7073;-56
2023/10/22 00:43:22;;;;;;;;;;;;;;;24.78;40.86;93436.97;4963753;28;7429;-56
2023/10/22 00:46:02;;;;;;;;;;;;;;;24.78;41.25;93438.97;4953479;28;7375;-62
2023/10/22 00:48:31;;;;;;;;;;;;;;;24.77;40.38;93445.75;4951374;28;7454;-62
2023/10/22 00:51:19;;;;;;;;;;;;;;;24.77;41.28;93440.25;4956751;28;7000;-62
2023/10/22 00:54:03;;;;;;;;;;;;;;;24.75;40.85;93442.78;4972393;28;8340;-62
2023/10/22 00:56:39;;;;;;;;;;;;;;;24.73;41.34;93441.28;4963037;28;7249;-62
2023/10/22 00:59:32;;;;;;;;;;;;;;;24.73;40.53;93441.28;4971780;28;7211;-62
2023/10/22 01:02:02;;;;;;;;;;;;;;;24.72;40.52;93439.06;4952304;28;7116;-63
2023/10/22 01:04:58;;;;;;;;;;;;;;;24.69;40.73;93438.09;4955726;28;7221;-63
2023/10/22 01:07:25;;;;;;;;;;;;;;;24.68;41.44;93433.84;4955702;28;7266;-62
2023/10/22 01:10:25;;;;;;;;;;;;;;;24.67;40.88;93437.88;4950297;28;7099;-62
2023/10/22 01:13:03;;;;;;;;;;;;;;;24.65;40.79;93437.69;4962451;28;9526;-62
2023/10/22 01:15:29;;;;;;;;;;;;;;;24.62;41.48;93433.22;4963838;28;7704;-62
2023/10/22 01:18:04;;;;;;;;;;;;;;;24.62;40.80;93435.97;4952711;28;6990;-63
2023/10/22 01:20:33;;;;;;;;;;;;;;;24.60;40.82;93441.25;4966504;28;7252;-62
2023/10/22 01:23:09;;;;;;;;;;;;;;;24.58;41.61;93445.78;4947947;28;9109;-62
2023/10/22 01:25:45;;;;;;;;;;;;;;;24.56;40.80;93448.34;4954943;28;6982;-62
2023/10/22 01:28:41;;;;;;;;;;;;;;;24.57;41.82;93447.81;4966250;28;9050;-62
2023/10/22 01:31:16;;;;;;;;;;;;;;;24.54;41.12;93443.38;4933414;29;7144;-62
2023/10/22 01:33:44;;;;;;;;;;;;;;;24.54;40.88;93451.63;4912254;29;9249;-62
2023/10/22 01:36:10;;;;;;;;;;;;;;;24.53;41.62;93449.41;4916099;29;7451;-62
2023/10/22 01:38:38;;;;;;;;;;;;;;;24.51;41.21;93452.66;4916141;29;9054;-62
2023/10/22 01:41:06;;;;;;;;;;;;;;;24.50;40.98;93451.19;4934587;29;7365;-62
2023/10/22 01:43:32;;;;;;;;;;;;;;;24.49;41.07;93451.72;4921120;28;9077;-62
2023/10/22 01:45:58;;;;;;;;;;;;;;;24.48;41.90;93453.72;4951977;28;8245;-62
2023/10/22 01:48:33;;;;;;;;;;;;;;;24.47;42.07;93454.97;4942326;28;7248;-62
2023/10/22 01:51:08;;;;;;;;;;;;;;;24.45;41.66;93454.03;4975223;28;7274;-62
2023/10/22 01:53:47;;;;;;;;;;;;;;;24.44;41.09;93458.06;4973904;28;8506;-62
2023/10/22 01:56:39;;;;;;;;;;;;;;;24.43;42.02;93457.31;4975322;28;7192;-62
2023/10/22 01:59:16;;;;;;;;;;;;;;;24.42;41.27;93458.59;4970281;28;7266;-62
2023/10/22 02:02:00;;;;;;;;;;;;;;;24.41;42.20;93465.34;4954788;28;7241;-62
2023/10/22 02:04:35;;;;;;;;;;;;;;;24.39;41.49;93467.13;4973811;28;7314;-62
2023/10/22 02:07:01;;;;;;;;;;;;;;;24.38;41.68;93471.16;4976704;28;9149;-62
2023/10/22 02:09:27;;;;;;;;;;;;;;;24.35;41.64;93467.44;5037115;28;7049;-62
2023/10/22 02:12:07;;;;;;;;;;;;;;;24.36;41.29;93479.91;5021720;28;7023;-62
2023/10/22 02:14:37;;;;;;;;;;;;;;;24.35;41.63;93478.44;5039018;28;8711;-62
2023/10/22 02:17:10;;;;;;;;;;;;;;;24.33;41.71;93480.22;5020136;28;8775;-62
2023/10/22 02:19:39;;;;;;;;;;;;;;;24.31;41.47;93480.75;5045024;28;9108;-62
2023/10/22 02:22:05;;;;;;;;;;;;;;;24.31;41.28;93488.25;5032186;28;7157;-62
2023/10/22 02:24:31;;;;;;;;;;;;;;;24.28;42.05;93490.03;5041315;28;7217;-63
2023/10/22 02:27:01;;;;;;;;;;;;;;;24.27;42.10;93488.53;5024398;28;8859;-62
2023/10/22 02:29:27;;;;;;;;;;;;;;;24.26;41.95;93495.31;5031295;28;6989;-62
2023/10/22 02:32:03;;;;;;;;;;;;;;;24.25;42.20;93491.06;5025404;28;6915;-62
2023/10/22 02:34:38;;;;;;;;;;;;;;;24.26;42.05;93492.56;5019280;28;7448;-62
2023/10/22 02:37:13;;;;;;;;;;;;;;;24.23;41.73;93488.09;5022964;28;7249;-62
2023/10/22 02:39:46;;;;;;;;;;;;;;;24.22;42.19;93497.63;5050316;28;7245;-62
2023/10/22 02:42:17;;;;;;;;;;;;;;;24.21;41.86;93493.38;5024149;28;7810;-62
2023/10/22 02:44:43;;;;;;;;;;;;;;;24.21;42.25;93498.88;5028821;28;9114;-62
2023/10/22 02:47:11;;;;;;;;;;;;;;;24.17;41.77;93495.69;5030628;28;7108;-62
2023/10/22 02:49:44;;;;;;;;;;;;;;;24.17;41.98;93505.94;5018693;28;8818;-62
2023/10/22 02:52:16;;;;;;;;;;;;;;;24.16;42.22;93512.72;5030370;28;9087;-62
2023/10/22 02:55:14;;;;;;;;;;;;;;;24.15;42.61;93505.72;5033512;28;7025;-62
2023/10/22 02:58:04;;;;;;;;;;;;;;;24.15;41.95;93513.97;5029997;28;7322;-62
2023/10/22 03:00:36;;;;;;;;;;;;;;;24.12;42.13;93510.25;5039133;28;7549;-62
2023/10/22 03:03:18;;;;;;;;;;;;;;;24.09;41.60;93511.31;5033621;28;8839;-62
2023/10/22 03:05:58;;;;;;;;;;;;;;;24.10;42.60;93506.56;5030106;28;8960;-54
2023/10/22 03:08:25;;;;;;;;;;;;;;;24.08;42.06;93518.06;5041640;28;7243;-55
2023/10/22 03:11:29;;;;;;;;;;;;;;;24.07;41.54;93524.81;5016126;28;8531;-52
2023/10/22 03:14:10;;;;;;;;;;;;;;;24.06;42.55;93528.06;5050105;28;7187;-55
2023/10/22 03:16:44;;;;;;;;;;;;;;;24.03;41.97;93513.38;5031914;28;9112;-55
2023/10/22 03:19:10;;;;;;;;;;;;;;;24.02;42.27;93535.84;5024303;28;7143;-54
2023/10/22 03:21:46;;;;;;;;;;;;;;;24.02;42.39;93525.59;5026591;28;7407;-55
2023/10/22 03:24:17;;;;;;;;;;;;;;;24.01;41.86;93526.13;5028550;28;8451;-54
2023/10/22 03:26:46;;;;;;;;;;;;;;;24.01;42.29;93524.13;5023272;28;6982;-55
2023/10/22 03:29:14;;;;;;;;;;;;;;;23.99;41.84;93529.38;5015717;28;6975;-55
2023/10/22 03:31:46;;;;;;;;;;;;;;;23.96;42.33;93530.44;5031589;28;7230;-54
2023/10/22 03:34:33;;;;;;;;;;;;;;;23.97;42.08;93548.38;5026093;28;8944;-55
2023/10/22 03:37:10;;;;;;;;;;;;;;;23.94;42.50;93550.19;5027732;28;7522;-55
2023/10/22 03:39:44;;;;;;;;;;;;;;;23.93;42.01;93553.44;5023274;28;8220;-55
2023/10/22 03:42:19;;;;;;;;;;;;;;;23.96;41.91;93549.66;5031459;28;9318;-55
2023/10/22 03:44:51;;;;;;;;;;;;;;;23.93;42.24;93537.72;5016764;28;7740;-55
2023/10/22 03:47:29;;;;;;;;;;;;;;;23.96;41.41;93549.66;5031087;28;7308;-55
2023/10/22 03:50:01;;;;;;;;;;;;;;;23.94;41.95;93555.69;5047945;28;7068;-55
2023/10/22 03:52:31;;;;;;;;;;;;;;;23.90;41.90;93549.72;5023299;28;7266;-55
2023/10/22 03:54:58;;;;;;;;;;;;;;;23.92;42.14;93554.72;5025374;28;7389;-55
2023/10/22 03:57:26;;;;;;;;;;;;;;;23.91;42.77;93556.72;5040235;28;7223;-54
2023/10/22 04:00:00;;;;;;;;;;;;;;;23.90;41.94;93568.22;5024799;28;9192;-54
2023/10/22 04:02:33;;;;;;;;;;;;;;;23.88;42.30;93557.03;5029603;28;8782;-55
2023/10/22 04:05:17;;;;;;;;;;;;;;;23.89;41.78;93564.72;5028711;28;7274;-55
2023/10/22 04:07:58;;;;;;;;;;;;;;;23.88;41.90;93565.25;5043774;28;7252;-55
2023/10/22 04:10:45;;;;;;;;;;;;;;;23.86;42.34;93565.75;5046321;28;8817;-55
2023/10/22 04:13:12;;;;;;;;;;;;;;;23.85;42.24;93569.03;5018640;28;7261;-55
2023/10/22 04:15:39;;;;;;;;;;;;;;;23.86;42.52;93559.53;5032482;28;7697;-61
2023/10/22 04:18:19;;;;;;;;;;;;;;;23.85;42.33;93569.78;5045019;28;7325;-62
2023/10/22 04:20:51;;;;;;;;;;;;;;;23.84;42.61;93571.03;5020115;28;7311;-62
2023/10/22 04:23:17;;;;;;;;;;;;;;;23.83;42.59;93572.31;5032028;28;7241;-62
2023/10/22 04:25:46;;;;;;;;;;;;;;;23.82;41.99;93575.56;5032705;28;8555;-62
2023/10/22 04:28:17;;;;;;;;;;;;;;;23.79;42.31;93571.84;5041954;28;8837;-62
2023/10/22 04:31:03;;;;;;;;;;;;;;;23.78;42.56;93577.84;5042511;28;7102;-61
2023/10/22 04:33:37;;;;;;;;;;;;;;;23.79;42.30;93577.31;5016387;28;9023;-61
2023/10/22 04:36:14;;;;;;;;;;;;;;;23.79;42.72;93582.09;5018912;28;8921;-62
2023/10/22 04:38:55;;;;;;;;;;;;;;;23.78;42.68;93586.09;5041266;28;9212;-62
2023/10/22 04:41:21;;;;;;;;;;;;;;;23.76;42.07;93575.63;5032676;28;7457;-62
2023/10/22 04:43:51;;;;;;;;;;;;;;;23.76;42.58;93583.13;5029505;28;7002;-62
2023/10/22 04:47:06;;;;;;;;;;;;;;;23.75;42.84;93581.66;5039709;28;8784;-62
2023/10/22 04:49:32;;;;;;;;;;;;;;;23.71;42.48;93589.41;4970377;28;9179;-61
2023/10/22 04:52:10;;;;;;;;;;;;;;;23.70;42.69;93585.19;4988546;28;6981;-62
2023/10/22 04:54:53;;;;;;;;;;;;;;;23.74;42.47;93591.13;4986285;28;9177;-61
2023/10/22 04:57:58;;;;;;;;;;;;;;;23.75;42.59;93598.13;4967374;28;7228;-61
2023/10/22 05:00:24;;;;;;;;;;;;;;;23.72;42.23;93596.41;4975562;28;7430;-62
2023/10/22 05:03:03;;;;;;;;;;;;;;;23.73;42.42;93606.09;4971021;28;8987;-61
2023/10/22 05:05:30;;;;;;;;;;;;;;;23.71;43.01;93601.16;4977936;28;7305;-61
2023/10/22 05:08:27;;;;;;;;;;;;;;;23.70;42.42;93615.41;4991323;28;8871;-61
2023/10/22 05:10:54;;;;;;;;;;;;;;;23.66;42.22;93610.19;4990577;28;7506;-61
2023/10/22 05:13:24;;;;;;;;;;;;;;;23.64;42.44;93620.22;4990713;28;9072;-62
2023/10/22 05:16:02;;;;;;;;;;;;;;;23.65;42.73;93616.94;4986795;28;7157;-61
2023/10/22 05:18:28;;;;;;;;;;;;;;;23.65;42.70;93611.44;4966498;28;9133;-61
2023/10/22 05:21:07;;;;;;;;;;;;;;;23.65;42.63;93625.19;4988269;28;9191;-62
2023/10/22 05:24:03;;;;;;;;;;;;;;;23.63;42.33;93624.94;4975602;28;7221;-61
2023/10/22 05:26:38;;;;;;;;;;;;;;;23.62;42.59;93620.00;4923193;28;8845;-61
2023/10/22 05:29:07;;;;;;;;;;;;;;;23.61;42.92;93623.97;4968113;28;7555;-61
2023/10/22 05:31:48;;;;;;;;;;;;;;;23.54;42.90;93622.56;4972357;28;9354;-61
2023/10/22 05:34:23;;;;;;;;;;;;;;;23.57;43.13;93637.25;4961028;28;7001;-61
2023/10/22 05:36:49;;;;;;;;;;;;;;;23.57;42.88;93637.25;4959636;28;6990;-61
2023/10/22 05:39:15;;;;;;;;;;;;;;;23.55;42.82;93639.78;4967440;28;8944;-61
2023/10/22 05:41:55;;;;;;;;;;;;;;;23.55;42.73;93640.53;4961734;28;7226;-62
2023/10/22 05:44:39;;;;;;;;;;;;;;;23.54;42.89;93632.78;4956053;28;8595;-61
2023/10/22 05:47:05;;;;;;;;;;;;;;;23.52;42.72;93636.06;4971652;28;7255;-61
2023/10/22 05:49:42;;;;;;;;;;;;;;;23.53;42.82;93634.78;4969147;28;7091;-62
2023/10/22 05:52:08;;;;;;;;;;;;;;;23.53;43.06;93642.28;4982135;28;9250;-61
2023/10/22 05:54:38;;;;;;;;;;;;;;;23.54;42.68;93643.75;4971675;28;9620;-60
2023/10/22 05:57:12;;;;;;;;;;;;;;;23.54;42.66;93643.75;4966943;28;7199;-61
2023/10/22 05:59:38;;;;;;;;;;;;;;;23.52;42.53;93647.03;4965805;28;7513;-61
2023/10/22 06:02:04;;;;;;;;;;;;;;;23.48;42.75;93645.81;4974186;28;7001;-61
2023/10/22 06:04:35;;;;;;;;;;;;;;;23.50;42.99;93659.78;5027451;28;7005;-61
2023/10/22 06:07:07;;;;;;;;;;;;;;;23.49;42.66;93663.78;5031346;28;9040;-61
2023/10/22 06:09:36;;;;;;;;;;;;;;;23.48;43.18;93656.81;5031212;28;8976;-62
2023/10/22 06:12:08;;;;;;;;;;;;;;;23.47;43.01;93671.78;5010622;28;7241;-61
2023/10/22 06:14:41;;;;;;;;;;;;;;;23.43;43.03;93679.53;5015350;28;7261;-61
2023/10/22 06:17:07;;;;;;;;;;;;;;;23.47;43.57;93677.28;5025606;28;7093;-61
2023/10/22 06:19:33;;;;;;;;;;;;;;;23.45;43.21;93674.28;5042594;28;6860;-61
2023/10/22 06:22:02;;;;;;;;;;;;;;;23.45;42.77;93680.53;5045447;28;7453;-61
2023/10/22 06:24:33;;;;;;;;;;;;;;;23.46;42.61;93684.03;5028819;28;9447;-61
2023/10/22 06:27:11;;;;;;;;;;;;;;;23.45;42.69;93688.00;5034574;28;9200;-61
2023/10/22 06:29:48;;;;;;;;;;;;;;;23.45;43.01;93699.00;5025062;28;8969;-61
2023/10/22 06:32:21;;;;;;;;;;;;;;;23.45;43.06;93709.97;5038381;28;8993;-62
2023/10/22 06:34:48;;;;;;;;;;;;;;;23.46;43.00;93708.72;5021386;28;7478;-55
2023/10/22 06:37:14;;;;;;;;;;;;;;;23.44;42.81;93703.00;5022756;28;7427;-54
2023/10/22 06:39:45;;;;;;;;;;;;;;;23.45;42.75;93705.22;5032069;28;7461;-55
2023/10/22 06:42:12;;;;;;;;;;;;;;;23.45;43.05;93710.72;5032354;28;8929;-55
2023/10/22 06:44:41;;;;;;;;;;;;;;;23.44;43.47;93711.25;5020015;28;7241;-55
2023/10/22 06:47:07;;;;;;;;;;;;;;;23.43;42.86;93709.72;5016123;28;6995;-55
2023/10/22 06:49:34;;;;;;;;;;;;;;;23.44;43.26;93706.50;5021156;28;6936;-55
2023/10/22 06:52:02;;;;;;;;;;;;;;;23.42;42.91;93708.25;5027462;28;7253;-53
2023/10/22 06:54:37;;;;;;;;;;;;;;;23.44;42.88;93724.97;5028213;28;9139;-55
2023/10/22 06:57:10;;;;;;;;;;;;;;;23.43;42.89;93728.94;5037418;28;9102;-54
2023/10/22 06:59:38;;;;;;;;;;;;;;;23.42;42.44;93724.72;5022211;28;7064;-53
2023/10/22 07:02:35;;;;;;;;;;;;;;;23.44;43.12;93730.44;5018320;28;7567;-55
2023/10/22 07:05:16;;;;;;;;;;;;;;;23.44;43.47;93733.19;5032941;28;7537;-55
2023/10/22 07:07:43;;;;;;;;;;;;;;;23.38;43.17;93727.00;5016677;28;8982;-55
2023/10/22 07:10:10;;;;;;;;;;;;;;;23.43;43.10;93732.44;5027190;28;7216;-55
2023/10/22 07:12:38;;;;;;;;;;;;;;;23.39;43.07;93728.47;5025260;28;7141;-55
2023/10/22 07:15:09;;;;;;;;;;;;;;;23.40;43.46;93732.72;5021940;28;7428;-55
2023/10/22 07:17:37;;;;;;;;;;;;;;;23.42;42.93;93741.19;5043106;28;7243;-54
2023/10/22 07:20:07;;;;;;;;;;;;;;;23.43;44.05;93734.44;5043077;28;7189;-55
2023/10/22 07:22:50;;;;;;;;;;;;;;;23.42;43.68;93736.47;5039323;28;9104;-55
2023/10/22 07:25:30;;;;;;;;;;;;;;;23.44;43.30;93744.16;5027603;28;7140;-55
2023/10/22 07:28:07;;;;;;;;;;;;;;;23.42;43.79;93741.19;5020866;28;8855;-55
2023/10/22 07:31:03;;;;;;;;;;;;;;;23.44;43.70;93746.91;5024375;28;9171;-54
2023/10/22 07:34:00;;;;;;;;;;;;;;;23.43;44.29;93745.41;4953648;28;7080;-53
2023/10/22 07:36:26;;;;;;;;;;;;;;;23.41;44.19;93751.41;4931809;29;7342;-54
2023/10/22 07:39:15;;;;;;;;;;;;;;;23.42;43.95;93746.69;4927528;28;8797;-54
2023/10/22 07:41:41;;;;;;;;;;;;;;;23.43;44.31;93753.66;4931699;29;7333;-52
2023/10/22 07:44:10;;;;;;;;;;;;;;;23.45;44.43;93756.63;4896066;29;7509;-64
2023/10/22 07:46:46;;;;;;;;;;;;;;;23.50;44.13;93753.84;4919895;29;6860;-62
2023/10/22 07:49:27;;;;;;;;;;;;;;;23.57;44.36;93760.78;4924248;29;7256;-65
2023/10/22 07:51:55;;;;;;;;;;;;;;;23.63;44.16;93756.72;4923465;29;7282;-65
2023/10/22 07:54:21;;;;;;;;;;;;;;;23.70;44.76;93760.91;4922036;29;8836;-65
2023/10/22 07:56:57;;;;;;;;;;;;;;;23.77;44.17;93757.59;4929587;29;6942;-64
2023/10/22 07:59:38;;;;;;;;;;;;;;;23.83;44.55;93747.31;4928955;28;7324;-65
2023/10/22 08:02:06;;;;;;;;;;;;;;;23.86;44.78;93757.25;4913842;29;6864;-66
2023/10/22 08:04:49;;;;;;;;;;;;;;;23.95;44.00;93765.16;4918497;29;9066;-65
2023/10/22 08:07:47;;;;;;;;;;;;;;;24.00;43.73;93758.88;4920980;29;7059;-64
2023/10/22 08:10:17;;;;;;;;;;;;;;;24.04;44.25;93766.81;4894563;29;7340;-65
2023/10/22 08:12:53;;;;;;;;;;;;;;;24.11;44.36;93763.53;4945767;28;7379;-65
2023/10/22 08:15:20;;;;;;;;;;;;;;;24.14;44.01;93765.97;4959392;28;8797;-65
2023/10/22 08:17:56;;;;;;;;;;;;;;;24.17;43.36;93764.94;4961984;28;9611;-65
2023/10/22 08:20:22;;;;;;;;;;;;;;;24.18;43.44;93760.22;4972663;28;8814;-65
2023/10/22 08:22:48;;;;;;;;;;;;;;;24.21;43.90;93759.16;4962939;28;7618;-65
2023/10/22 08:25:16;;;;;;;;;;;;;;;24.19;43.85;93759.69;4981152;28;8966;-66
2023/10/22 08:27:43;;;;;;;;;;;;;;;;;;4972200;28;7008;-65
2023/10/22 08:30:20;;;;;;;;;;;;;;;24.25;43.47;93771.34;4979603;28;8728;-66
2023/10/22 08:32:51;;;;;;;;;;;;;;;24.24;43.97;93767.13;4972728;28;9447;-65
2023/10/22 08:35:21;;;;;;;;;;;;;;;24.23;43.88;93760.13;4962757;28;8209;-65
2023/10/22 08:37:47;;;;;;;;;;;;;;;24.25;42.98;93767.88;4976912;28;7280;-66
2023/10/22 08:40:27;;;;;;;;;;;;;;;24.28;43.63;93767.56;4978557;28;8812;-66
2023/10/22 08:43:06;;;;;;;;;;;;;;;24.26;43.16;93761.84;4976707;28;7139;-65
2023/10/22 08:45:38;;;;;;;;;;;;;;;24.27;43.74;93774.31;4992512;28;8765;-65
2023/10/22 08:48:08;;;;;;;;;;;;;;;24.29;43.69;93779.31;5028796;28;7244;-65
2023/10/22 08:50:37;;;;;;;;;;;;;;;24.28;43.25;93786.81;5016923;28;7298;-65
2023/10/22 08:53:06;;;;;;;;;;;;;;;24.28;43.76;93789.56;5033853;28;7396;-65
2023/10/22 08:55:44;;;;;;;;;;;;;;;24.27;43.87;93785.31;5039937;28;7472;-56
2023/10/22 08:58:27;;;;;;;;;;;;;;;24.28;42.82;93781.31;5039297;28;9221;-55
2023/10/22 09:00:53;;;;;;;;;;;;;;;24.28;43.00;93789.56;5019153;28;7657;-56
2023/10/22 09:03:22;;;;;;;;;;;;;;;24.28;43.34;93781.31;5026025;28;7009;-56
2023/10/22 09:05:49;;;;;;;;;;;;;;;24.29;42.95;93782.81;5044418;28;7089;-56
2023/10/22 09:08:42;;;;;;;;;;;;;;;24.29;43.20;93777.31;5031921;28;7402;-56
2023/10/22 09:11:20;;;;;;;;;;;;;;;24.27;42.49;93779.81;5015777;28;7282;-56
2023/10/22 09:14:20;;;;;;;;;;;;;;;24.28;42.85;93784.06;5030128;28;9399;-56
2023/10/22 09:17:21;;;;;;;;;;;;;;;24.25;42.63;93778.88;4935801;28;7238;-57
2023/10/22 09:19:48;;;;;;;;;;;;;;;24.22;42.99;93782.63;4951095;28;8198;-56
2023/10/22 09:22:31;;;;;;;;;;;;;;;24.21;42.89;93787.38;4950051;29;8721;-56
2023/10/22 09:25:16;;;;;;;;;;;;;;;24.20;42.65;93793.41;4944798;28;7169;-56
2023/10/22 09:28:20;;;;;;;;;;;;;;;24.22;42.68;93799.13;4952586;29;8715;-56
2023/10/22 09:31:04;;;;;;;;;;;;;;;24.20;43.04;93794.16;4934226;29;8092;-56
2023/10/22 09:33:41;;;;;;;;;;;;;;;24.18;43.33;93793.19;4949719;29;7333;-57
2023/10/22 09:36:14;;;;;;;;;;;;;;;24.19;43.41;93795.41;4951021;28;8952;-57
2023/10/22 09:38:49;;;;;;;;;;;;;;;24.18;42.62;93793.19;4933196;29;9480;-56
2023/10/22 09:41:37;;;;;;;;;;;;;;;24.17;42.92;93781.44;4950903;29;7636;-56
2023/10/22 09:44:11;;;;;;;;;;;;;;;24.17;43.50;93797.91;4951895;29;8402;-56
2023/10/22 09:46:38;;;;;;;;;;;;;;;24.17;43.08;93788.94;4950926;29;7269;-57
2023/10/22 09:49:13;;;;;;;;;;;;;;;24.15;42.76;93792.19;4949664;28;7194;-56
2023/10/22 09:51:40;;;;;;;;;;;;;;;24.13;43.02;93794.72;4951266;29;7045;-56
2023/10/22 09:54:10;;;;;;;;;;;;;;;24.13;43.07;93802.97;5008080;28;8739;-56
2023/10/22 09:56:50;;;;;;;;;;;;;;;24.13;43.17;93802.22;5019738;28;7348;-56
2023/10/22 09:59:32;;;;;;;;;;;;;;;24.09;42.71;93813.50;5030383;28;7216;-56
2023/10/22 10:02:04;;;;;;;;;;;;;;;24.09;43.48;93801.75;5002544;28;8863;-56
2023/10/22 10:04:40;;;;;;;;;;;;;;;24.09;42.64;93812.75;5042971;28;7199;-62
2023/10/22 10:07:09;;;;;;;;;;;;;;;24.06;43.69;93813.75;5028428;28;7256;-62
2023/10/22 10:09:37;;;;;;;;;;;;;;;24.10;43.21;93817.72;5035669;28;8737;-62
2023/10/22 10:12:13;;;;;;;;;;;;;;;24.10;42.51;93819.75;5033382;28;8960;-62
2023/10/22 10:14:44;;;;;;;;;;;;;;;24.09;42.90;93819.00;5025154;28;8922;-63
2023/10/22 10:17:20;;;;;;;;;;;;;;;24.08;43.31;93812.00;5025772;28;8608;-62
2023/10/22 10:19:47;;;;;;;;;;;;;;;24.09;43.87;93799.75;5029776;28;7360;-62
2023/10/22 10:23:04;;;;;;;;;;;;;;;24.08;43.35;93798.25;5034342;28;7227;-62
2023/10/22 10:25:41;;;;;;;;;;;;;;;24.10;44.33;93800.50;4958349;28;8735;-62
2023/10/22 10:28:09;;;;;;;;;;;;;;;24.10;44.37;93803.97;4962126;28;7230;-62
2023/10/22 10:30:37;;;;;;;;;;;;;;;24.10;44.55;93809.47;4970488;28;8770;-62
2023/10/22 10:33:16;;;;;;;;;;;;;;;24.07;44.64;93798.78;4950053;28;7514;-62
2023/10/22 10:36:05;;;;;;;;;;;;;;;24.10;45.30;93808.75;4963649;28;7235;-62
2023/10/22 10:38:33;;;;;;;;;;;;;;;24.08;44.81;93814.75;4953736;28;7243;-62
2023/10/22 10:41:00;;;;;;;;;;;;;;;24.08;44.70;93812.00;4969618;28;7878;-62
2023/10/22 10:47:32;;;;;;;;;;;;;;;24.07;45.38;93829.75;4896091;29;7294;-62
2023/10/22 10:50:03;;;;;;;;;;;;;;;24.06;45.07;93825.50;4895726;29;8476;-61
2023/10/22 10:52:57;;;;;;;;;;;;;;;24.07;44.30;93818.75;4879427;29;8738;-61
2023/10/22 10:55:32;;;;;;;;;;;;;;;24.10;44.45;93819.75;4843484;29;7008;-62
2023/10/22 10:58:01;;;;;;;;;;;;;;;24.09;44.88;93819.00;4829015;29;6984;-62
2023/10/22 11:00:52;;;;;;;;;;;;;;;24.08;44.43;93811.25;4846341;29;7223;-63
2023/10/22 11:03:24;;;;;;;;;;;;;;;24.11;44.54;93807.47;4880814;29;8826;-63
2023/10/22 11:06:11;;;;;;;;;;;;;;;24.12;44.53;93815.19;4879202;29;7003;-63
2023/10/22 11:08:45;;;;;;;;;;;;;;;24.11;44.62;93810.97;4865594;29;6990;-63
2023/10/22 11:11:16;;;;;;;;;;;;;;;24.12;44.21;93809.69;4877807;29;9275;-63
2023/10/22 11:13:44;;;;;;;;;;;;;;;24.14;44.28;93809.22;4881882;29;7442;-65
2023/10/22 11:16:11;;;;;;;;;;;;;;;24.14;44.49;93809.94;4878435;29;8751;-65
2023/10/22 11:18:58;;;;;;;;;;;;;;;24.18;44.43;93815.91;4885203;29;7285;-65
2023/10/22 11:21:28;;;;;;;;;;;;;;;24.17;43.85;93805.41;4880451;29;7437;-66
2023/10/22 11:24:16;;;;;;;;;;;;;;;24.19;44.21;93809.13;4944510;28;8388;-65
2023/10/22 11:27:19;;;;;;;;;;;;;;;24.21;44.08;93814.84;4964289;28;7078;-65
2023/10/22 11:30:01;;;;;;;;;;;;;;;24.23;44.63;93817.13;4933254;28;7226;-64
2023/10/22 11:33:01;;;;;;;;;;;;;;;24.22;44.10;93816.38;4942056;28;9308;-65
2023/10/22 11:35:33;;;;;;;;;;;;;;;24.23;44.88;93817.13;4986786;28;7576;-66
2023/10/22 11:38:00;;;;;;;;;;;;;;;;;;4973967;28;7497;-65
2023/10/22 11:41:04;;;;;;;;;;;;;;;24.26;44.81;93819.56;4991925;28;8794;-66
2023/10/22 11:43:34;;;;;;;;;;;;;;;24.28;44.60;93814.28;4934664;29;7247;-66
2023/10/22 11:46:00;;;;;;;;;;;;;;;24.29;44.06;93815.03;4919131;29;7227;-65
2023/10/22 11:48:28;;;;;;;;;;;;;;;24.31;44.28;93823.50;4919286;29;7071;-65
2023/10/22 11:51:08;;;;;;;;;;;;;;;24.33;44.00;93805.25;4934941;29;9053;-65
2023/10/22 11:53:51;;;;;;;;;;;;;;;24.36;44.70;93804.22;4918143;29;6989;-65
2023/10/22 11:56:30;;;;;;;;;;;;;;;24.38;44.16;93806.47;4918760;29;7268;-66
2023/10/22 11:59:00;;;;;;;;;;;;;;;24.38;44.60;93798.94;4918880;29;7374;-66
2023/10/22 12:01:27;;;;;;;;;;;;;;;24.40;44.03;93801.91;4934243;29;7364;-66
2023/10/22 12:03:54;;;;;;;;;;;;;;;24.39;44.20;93797.69;4907619;29;9100;-66
2023/10/22 12:06:20;;;;;;;;;;;;;;;24.42;44.62;93795.91;4915162;29;9045;-65
2023/10/22 12:08:49;;;;;;;;;;;;;;;24.46;44.31;93793.63;4914515;29;9513;-66
2023/10/22 12:11:24;;;;;;;;;;;;;;;24.47;44.29;93790.34;4946504;28;7225;-66
2023/10/22 12:13:50;;;;;;;;;;;;;;;24.47;44.52;93792.34;4958103;28;9029;-66
2023/10/22 12:16:36;;;;;;;;;;;;;;;24.47;44.30;93786.84;4963288;28;7123;-66
2023/10/22 12:19:08;;;;;;;;;;;;;;;24.48;44.47;93791.84;5000824;28;9066;-66
2023/10/22 12:21:34;;;;;;;;;;;;;;;24.51;44.00;93801.78;5016236;28;7225;-66
2023/10/22 12:24:00;;;;;;;;;;;;;;;24.53;43.85;93795.78;5026375;28;7260;-62
2023/10/22 12:26:33;;;;;;;;;;;;;;;24.55;43.97;93791.25;5031709;28;8965;-62
2023/10/22 12:29:09;;;;;;;;;;;;;;;24.56;43.57;93784.50;5029642;28;6998;-64
2023/10/22 12:31:46;;;;;;;;;;;;;;;24.60;43.99;93784.94;5022515;28;6999;-64
2023/10/22 12:34:19;;;;;;;;;;;;;;;24.60;44.50;93779.44;5046930;28;6998;-63
2023/10/22 12:36:46;;;;;;;;;;;;;;;24.59;44.17;93777.22;5019875;28;7217;-63
2023/10/22 12:39:18;;;;;;;;;;;;;;;24.59;43.70;93777.97;5016899;28;7394;-64
2023/10/22 12:41:45;;;;;;;;;;;;;;;24.62;43.86;93774.16;5039319;28;9954;-63
2023/10/22 12:44:13;;;;;;;;;;;;;;;24.65;43.47;93778.63;5019716;28;7328;-64
2023/10/22 12:46:41;;;;;;;;;;;;;;;24.67;44.47;93778.84;5033511;28;7607;-63
2023/10/22 12:49:07;;;;;;;;;;;;;;;24.65;43.99;93780.63;5027190;28;9479;-62
2023/10/22 12:51:35;;;;;;;;;;;;;;;24.66;43.60;93780.09;5022999;28;7406;-62
2023/10/22 12:54:04;;;;;;;;;;;;;;;24.63;43.86;93783.91;5020849;28;7332;-62
2023/10/22 12:56:32;;;;;;;;;;;;;;;24.66;43.76;93782.13;5035052;28;7240;-62
2023/10/22 12:58:59;;;;;;;;;;;;;;;24.68;43.98;93783.06;5023833;28;9181;-62
2023/10/22 13:01:29;;;;;;;;;;;;;;;24.71;44.14;93779.28;5023324;28;8500;-62
2023/10/22 13:04:04;;;;;;;;;;;;;;;24.68;43.94;93776.84;5036164;28;6995;-62
2023/10/22 13:06:37;;;;;;;;;;;;;;;24.70;43.53;93780.56;5027059;28;9390;-63
2023/10/22 13:09:04;;;;;;;;;;;;;;;24.73;43.26;93776.78;5038944;28;7003;-61
2023/10/22 13:11:44;;;;;;;;;;;;;;;24.80;43.33;93778.22;5031593;28;9004;-62
2023/10/22 13:14:23;;;;;;;;;;;;;;;24.83;43.23;93773.69;5041400;28;7337;-63
2023/10/22 13:16:51;;;;;;;;;;;;;;;24.87;43.08;93785.13;5043614;28;7060;-62
2023/10/22 13:19:33;;;;;;;;;;;;;;;24.89;43.42;93777.09;5038471;28;7224;-63
2023/10/22 13:21:59;;;;;;;;;;;;;;;24.90;43.61;93781.34;5037985;28;9577;-63
2023/10/22 13:24:26;;;;;;;;;;;;;;;24.93;44.02;93769.28;5040704;28;7219;-63
2023/10/22 13:27:01;;;;;;;;;;;;;;;24.94;43.71;93784.53;5028534;28;9124;-63
2023/10/22 13:29:32;;;;;;;;;;;;;;;24.98;43.53;93782.22;5014200;28;7076;-63
2023/10/22 13:32:05;;;;;;;;;;;;;;;25.00;44.07;93776.94;5030504;28;7245;-62
2023/10/22 13:34:34;;;;;;;;;;;;;;;25.01;44.42;93778.44;5036974;28;7270;-60
2023/10/22 13:37:26;;;;;;;;;;;;;;;25.01;43.85;93772.94;5032939;28;9420;-59
2023/10/22 13:40:03;;;;;;;;;;;;;;;25.04;43.97;93780.88;4975523;28;7081;-60
2023/10/22 13:42:30;;;;;;;;;;;;;;;25.03;43.95;93782.16;4984363;28;9149;-60